Latest Weather Observations for Lajamanu

IDD60801

Issued at 9:31 pm CST Friday 12 February 2016 (issued every 30 minutes, with the page automatically refreshed every 10 minutes)

About weather observations | Map of weather stations | Latest weather observations for NT | Other Formats
Station Details ID: 014829 Name: LAJAMANU AIRPORT Lat: -18.33 Lon: 130.64 Height: 315.6 m
Data from the previous 72 hours. | See also: Recent months at Lajamanu
Date/Time
CST
Temp
°C
App
Temp
°C
Dew
Point
Rel
Hum
%
Delta-T
°C
Wind Press
QNH
hPa
Press
MSL
hPa
Rain
since 9 am
mm
Dir
 
Spd
km/h
Gust
km/h
Spd
kts
Gust
kts
12/09:30pm 31.8 31.4 14.0 34 10.9 NNE 9 11 5 6 1009.8 1007.3 0.0
12/09:00pm 32.2 31.7 13.9 33 11.3 NNE 9 11 5 6 1009.5 1007.0 0.0
12/08:30pm 32.7 32.1 13.4 31 11.8 NE 9 11 5 6 1009.1 1006.7 0.0
12/08:00pm 33.5 32.6 12.5 28 12.7 ENE 9 11 5 6 1008.8 1006.4 0.0
12/07:30pm 35.0 32.6 11.4 24 14.1 E 15 19 8 10 1008.4 1006.0 0.0
12/07:00pm 36.2 33.3 11.1 22 15.0 E 17 24 9 13 1008.0 1005.5 0.0
12/06:30pm 37.3 35.0 10.6 20 16.0 E 13 17 7 9 1007.7 1005.2 0.0
12/06:00pm 37.8 35.3 11.0 20 16.1 ENE 15 24 8 13 1007.4 1004.9 0.0
12/05:30pm 38.5 36.9 11.5 20 16.4 ENE 11 19 6 10 1007.2 1004.7 0.0
12/05:00pm 38.4 37.2 11.5 20 16.3 ENE 9 20 5 11 1007.2 1004.7 0.0
12/04:30pm 38.5 36.4 12.3 21 16.1 ESE 15 30 8 16 1007.4 1004.9 0.0
12/04:00pm 38.1 35.6 11.2 20 16.2 E 15 22 8 12 1007.7 1005.2 0.0
12/03:30pm 37.8 35.1 11.7 21 15.9 E 17 30 9 16 1008.0 1005.5 0.0
12/03:00pm 37.3 35.1 12.0 22 15.4 E 15 24 8 13 1008.4 1006.0 0.0
12/02:30pm 38.3 34.9 11.4 20 16.3 SE 20 28 11 15 1008.7 1006.3 0.0
12/02:00pm 39.2 35.8 11.3 19 16.9 SE 20 32 11 17 1008.9 1006.5 0.0
12/01:30pm 37.8 34.7 11.7 21 15.9 ESE 19 26 10 14 1009.5 1007.0 0.0
12/01:00pm 37.2 34.6 13.3 24 14.8 E 19 32 10 17 1010.0 1007.5 0.0
12/12:30pm 35.2 33.6 13.9 27 13.2 E 15 22 8 12 1010.4 1007.9 0.0
12/12:00pm 37.0 36.0 15.5 28 13.7 ESE 15 28 8 15 1010.8 1008.3 0.0
12/11:30am 35.6 33.7 15.3 29 12.9 E 19 33 10 18 1011.4 1009.0 0.0
12/11:00am 35.5 35.7 17.7 35 11.7 E 13 20 7 11 1011.6 1009.2 0.0
12/10:30am 34.4 35.7 18.4 38 10.6 ESE 9 15 5 8 1011.9 1009.5 0.0
12/10:00am 33.8 35.0 18.3 39 10.2 E 9 13 5 7 1012.0 1009.6 0.0
12/09:30am 32.3 33.6 18.5 44 9.1 SSE 9 13 5 7 1012.2 1009.8 0.0
12/09:00am 30.8 33.1 18.5 47 8.0 SSE 4 11 2 6 1012.1 1009.7 0.0
12/08:30am 29.5 31.4 18.9 53 6.9 SSE 7 9 4 5 1012.0 1009.6 0.0
12/08:00am 27.9 29.8 18.9 58 5.9 S 7 9 4 5 1011.8 1009.4 0.0
12/07:30am 26.1 28.9 18.8 64 4.7 SSW 2 6 1 3 1011.5 1009.1 0.0
12/07:00am 24.8 27.2 19.6 73 3.4 S 6 9 3 5 1011.0 1008.6 0.0
12/06:30am 23.7 26.8 18.6 73 3.3 CALM 0 0 0 0 1010.5 1008.0 0.0
12/06:00am 24.2 27.3 18.6 71 3.6 CALM 0 0 0 0 1009.8 1007.3 0.0
12/05:30am 25.1 27.1 19.2 70 3.8 S 7 7 4 4 1009.6 1007.1 0.0
12/05:00am 24.5 27.1 17.5 65 4.4 CALM 0 0 0 0 1009.2 1006.8 0.0
12/04:30am 25.2 27.9 17.7 63 4.8 CALM 0 0 0 0 1009.0 1006.6 0.0
12/04:00am 27.3 28.3 16.9 53 6.6 N 7 11 4 6 1008.9 1006.5 0.0
12/03:30am 27.7 28.1 17.3 53 6.6 NNE 11 15 6 8 1008.7 1006.3 0.0
12/03:00am 27.1 27.6 18.4 59 5.6 NNE 13 15 7 8 1008.8 1006.4 0.0
12/02:30am 25.6 28.6 18.5 65 4.6 CALM 0 0 0 0 1008.9 1006.5 0.0
12/02:00am 25.9 29.1 18.8 65 4.6 CALM 0 0 0 0 1009.2 1006.8 0.0
12/01:30am 25.8 28.7 18.2 63 4.9 CALM 0 0 0 0 1009.6 1007.1 0.0
12/01:00am 26.3 29.3 18.4 61 5.1 CALM 0 6 0 3 1009.7 1007.2 0.0
12/12:30am 26.7 29.1 16.9 55 6.2 CALM 0 0 0 0 1009.9 1007.4 0.0
12/12:00am 27.2 28.3 16.5 52 6.7 N 6 6 3 3 1010.1 1007.6 0.0
 
Date/Time
CST
Temp
°C
App
Temp
°C
Dew
Point
Rel
Hum
%
Delta-T
°C
Wind Press
QNH
hPa
Press
MSL
hPa
Rain
since 9 am
mm
Dir
 
Spd
km/h
Gust
km/h
Spd
kts
Gust
kts
11/11:30pm 28.7 29.6 16.6 48 7.6 N 7 9 4 5 1010.2 1007.7 0.0
11/11:00pm 29.9 31.0 16.7 45 8.4 N 6 9 3 5 1009.9 1007.4 0.0
11/10:30pm 29.9 30.8 16.7 45 8.4 N 7 11 4 6 1009.9 1007.4 0.0
11/10:00pm 30.2 30.9 16.2 42 8.8 N 7 9 4 5 1009.7 1007.2 0.0
11/09:30pm 30.5 30.7 15.8 41 9.2 N 9 11 5 6 1009.5 1007.0 0.0
11/09:00pm 30.8 30.6 15.6 39 9.5 N 11 15 6 8 1008.9 1006.5 0.0
11/08:30pm 31.0 28.8 15.0 38 10.0 NNE 20 32 11 17 1008.7 1006.3 0.0
11/08:00pm 32.8 30.2 13.9 31 11.6 NE 20 30 11 16 1008.2 1005.8 0.0
11/07:30pm 33.6 32.3 12.6 28 12.7 ENE 11 15 6 8 1007.7 1005.2 0.0
11/07:00pm 34.4 32.4 12.7 27 13.2 ENE 15 20 8 11 1007.3 1004.8 0.0
11/06:30pm 34.4 31.3 12.1 26 13.5 NE 20 30 11 16 1006.8 1004.3 0.0
11/06:00pm 34.4 29.2 11.5 25 13.7 ENE 30 43 16 23 1006.5 1004.0 0.0
11/05:31pm 36.8 31.5 8.6 18 16.3 ESE 26 54 14 29 1006.0 1003.6 0.0
11/05:30pm 37.0 32.2 8.8 18 16.4 ESE 24 37 13 20 1006.0 1003.6 0.0
11/05:00pm 39.0 35.1 9.5 17 17.4 SSE 20 30 11 16 1005.6 1003.2 0.0
11/04:30pm 38.8 34.6 11.0 19 16.8 ESE 24 32 13 17 1005.7 1003.3 0.0
11/04:00pm 39.3 35.0 10.6 18 17.3 SE 24 37 13 20 1006.0 1003.6 0.0
11/03:30pm 38.8 33.6 10.2 18 17.1 SE 28 39 15 21 1006.4 1003.9 0.0
11/03:00pm 38.5 33.6 10.0 18 17.0 ESE 26 37 14 20 1006.8 1004.3 0.0
11/02:30pm 39.2 32.9 8.8 16 17.8 SE 32 50 17 27 1007.1 1004.6 0.0
11/02:23pm 39.1 33.1 8.7 16 17.8 SE 30 50 16 27 1007.0 1004.5 0.0
11/02:00pm 38.4 34.3 11.5 20 16.3 SE 24 41 13 22 1007.5 1005.0 0.0
11/01:33pm 38.9 34.2 11.9 20 16.5 SE 28 46 15 25 1007.7 1005.2 0.0
11/01:30pm 38.5 34.4 11.5 20 16.4 SE 24 37 13 20 1007.9 1005.4 0.0
11/01:00pm 38.2 34.3 13.4 23 15.4 SE 26 39 14 21 1008.3 1005.9 0.0
11/12:30pm 37.3 34.3 12.7 23 15.1 SE 20 32 11 17 1008.8 1006.4 0.0
11/12:00pm 36.5 34.9 15.0 27 13.6 SE 17 26 9 14 1009.2 1006.8 0.0
11/11:30am 35.8 34.4 14.4 27 13.4 ESE 15 24 8 13 1009.7 1007.2 0.0
11/11:00am 35.4 34.6 15.2 30 12.8 ESE 13 24 7 13 1009.9 1007.4 0.0
11/10:30am 34.2 34.7 15.6 32 11.8 NE 7 13 4 7 1010.1 1007.6 0.0
11/10:00am 33.0 34.6 16.8 38 10.4 NE 4 11 2 6 1010.4 1007.9 0.0
11/09:30am 31.4 32.9 18.0 44 8.7 W 7 9 4 5 1010.4 1007.9 0.0
11/09:00am 30.2 31.7 18.0 48 7.9 WSW 7 11 4 6 1010.4 1007.9 0.0
11/08:30am 28.9 30.7 18.4 53 6.8 NW 6 7 3 4 1010.4 1007.9 0.0
11/08:00am 26.5 28.7 18.4 61 5.2 WSW 4 7 2 4 1010.3 1007.8 0.0
11/07:30am 25.6 27.7 17.3 60 5.2 ENE 2 7 1 4 1010.3 1007.8 0.0
11/07:00am 23.6 24.8 17.3 67 4.0 E 7 9 4 5 1010.0 1007.5 0.0
11/06:30am 22.9 24.0 17.1 70 3.6 ESE 7 9 4 5 1009.8 1007.3 0.0
11/06:00am 23.3 25.4 17.1 68 3.9 S 2 7 1 4 1009.6 1007.1 0.0
11/05:30am 23.5 23.4 17.0 67 4.1 E 13 15 7 8 1009.2 1006.8 0.0
11/05:00am 23.4 24.0 16.7 66 4.2 ESE 9 11 5 6 1008.9 1006.5 0.0
11/04:30am 23.0 24.3 17.0 69 3.7 SE 6 7 3 4 1008.6 1006.2 0.0
11/04:00am 23.2 25.6 17.0 68 3.9 CALM 0 0 0 0 1008.1 1005.7 0.0
11/03:30am 23.8 23.8 15.3 59 5.2 NNE 9 11 5 6 1008.0 1005.5 0.0
11/03:00am 24.3 24.9 15.8 59 5.2 NNE 7 9 4 5 1007.7 1005.2 0.0
11/02:30am 23.8 25.5 15.3 59 5.2 CALM 0 0 0 0 1007.8 1005.3 0.0
11/02:00am 23.8 25.5 16.3 63 4.6 SSW 2 6 1 3 1007.8 1005.3 0.0
11/01:30am 24.0 25.2 16.0 61 4.9 W 4 9 2 5 1007.8 1005.3 0.0
11/01:00am 24.1 25.3 14.8 56 5.6 NNW 2 6 1 3 1007.8 1005.3 0.0
11/12:30am 24.8 25.1 14.9 54 6.0 N 7 9 4 5 1007.8 1005.3 0.0
11/12:00am 26.6 26.1 13.7 45 7.7 NNE 9 11 5 6 1008.2 1005.8 0.0
 
Date/Time
CST
Temp
°C
App
Temp
°C
Dew
Point
Rel
Hum
%
Delta-T
°C
Wind Press
QNH
hPa
Press
MSL
hPa
Rain
since 9 am
mm
Dir
 
Spd
km/h
Gust
km/h
Spd
kts
Gust
kts
10/11:30pm 28.3 28.0 13.4 40 9.0 ENE 7 11 4 6 1008.6 1006.2 0.0
10/11:00pm 30.0 27.9 11.0 31 11.1 NE 13 13 7 7 1008.6 1006.2 0.0
10/10:30pm 28.8 27.5 11.4 34 10.2 NE 9 11 5 6 1008.6 1006.2 0.0
10/10:00pm 29.4 27.6 11.0 32 10.7 ENE 11 15 6 8 1008.2 1005.8 0.0
10/09:30pm 29.1 27.4 11.2 33 10.4 ESE 11 13 6 7 1007.8 1005.3 0.0
10/09:00pm 29.5 27.9 10.1 30 11.1 SE 9 9 5 5 1007.6 1005.1 0.0
10/08:30pm 30.6 29.3 10.0 28 11.9 SE 7 9 4 5 1007.0 1004.5 0.0
10/08:00pm 32.2 30.5 9.7 25 13.0 SE 9 11 5 6 1006.7 1004.2 0.0
10/07:30pm 34.5 32.0 8.3 20 15.0 SE 11 13 6 7 1006.3 1003.8 0.0
10/07:00pm 36.6 33.2 7.6 17 16.5 SE 15 20 8 11 1006.0 1003.6 0.0
10/06:30pm 37.6 33.6 6.6 15 17.5 SE 17 24 9 13 1005.8 1003.4 0.0
10/06:00pm 38.3 33.8 7.1 15 17.8 ESE 20 30 11 16 1005.5 1003.1 0.0
10/05:30pm 38.3 33.9 9.0 17 17.2 SSE 22 30 12 16 1005.3 1002.9 0.0
10/05:00pm 38.0 36.6 13.3 23 15.4 S 13 17 7 9 1005.3 1002.9 0.0
10/04:30pm 35.5 35.0 12.5 25 14.0 SSW 7 11 4 6 1005.7 1003.3 0.0
10/04:00pm 31.9 27.6 13.2 32 11.4 WSW 28 41 15 22 1006.3 1003.8 0.0
10/03:49pm 31.5 26.5 13.3 33 11.0 SSW 32 50 17 27 1006.4 1003.9 0.0
10/03:48pm 31.9 26.8 13.2 32 11.4 SSW 32 50 17 27 1006.4 1003.9 0.0
10/03:36pm 37.1 31.9 10.4 20 15.9 SSE 28 50 15 27 1006.3 1003.8 0.0
10/03:30pm 39.2 35.8 11.3 19 17.0 SSE 20 30 11 16 1006.2 1003.7 0.0
10/03:00pm 39.2 35.2 10.5 18 17.3 SE 22 35 12 19 1006.5 1004.0 0.0
10/02:30pm 39.4 36.1 11.5 19 17.0 SE 20 32 11 17 1006.8 1004.3 0.0
10/02:00pm 39.1 36.2 12.8 21 16.3 SE 20 35 11 19 1007.2 1004.7 0.0
10/01:30pm 38.8 36.0 13.2 21 16.0 ESE 20 32 11 17 1007.6 1005.1 0.0
10/01:00pm 38.5 35.5 13.7 23 15.5 SE 22 35 12 19 1008.1 1005.7 0.0
10/12:30pm 38.0 34.9 13.3 23 15.4 ESE 22 35 12 19 1008.5 1006.1 0.0
10/12:00pm 37.6 34.2 13.6 24 15.0 ESE 24 35 13 19 1008.9 1006.5 0.0
10/11:30am 36.8 33.8 14.7 26 14.0 ESE 24 37 13 20 1009.3 1006.9 0.0
10/11:00am 36.4 34.4 15.5 29 13.3 ESE 20 30 11 16 1009.7 1007.2 0.0
10/10:30am 35.2 33.0 16.0 31 12.3 ESE 22 32 12 17 1010.0 1007.5 0.0
10/10:00am 34.2 32.4 16.1 34 11.6 E 20 32 11 17 1010.2 1007.7 0.0
10/09:30am 33.2 31.6 16.5 36 10.7 E 20 30 11 16 1010.3 1007.8 0.0
10/09:00am 32.1 30.1 15.6 37 10.4 ESE 20 30 11 16 1010.1 1007.6 -
10/08:30am 30.5 30.0 15.8 41 9.2 ESE 13 19 7 10 1009.8 1007.3 -
10/08:00am 28.5 28.5 15.1 44 8.3 SE 9 13 5 7 1009.7 1007.2 -
10/07:30am 26.7 26.8 14.5 47 7.4 SSE 7 11 4 6 1009.5 1007.0 -
10/07:00am 26.1 25.7 14.2 48 7.2 S 9 13 5 7 1009.0 1006.6 -
10/06:30am 26.0 25.8 14.8 50 6.8 SSE 9 15 5 8 1008.9 1006.5 -
10/06:00am 25.8 25.6 14.6 50 6.8 S 9 13 5 7 1008.6 1006.2 -
10/05:30am 25.8 25.2 14.6 50 6.8 S 11 13 6 7 1008.3 1005.9 -
10/05:00am 25.7 25.7 15.1 52 6.5 S 9 13 5 7 1008.1 1005.7 -
10/04:30am 25.4 25.8 15.4 54 6.1 SE 7 11 4 6 1007.7 1005.2 -
10/04:00am 23.7 24.8 15.5 60 5.0 S 4 7 2 4 1007.8 1005.3 -
10/03:30am 23.6 25.4 15.6 61 4.9 CALM 0 0 0 0 1007.7 1005.2 -
10/03:00am 23.9 25.6 15.1 58 5.3 CALM 0 0 0 0 1007.8 1005.3 0.0
10/02:30am 24.1 25.8 15.1 57 5.5 CALM 0 0 0 0 1008.0 1005.5 -
10/02:00am 24.9 26.8 15.8 57 5.6 CALM 0 0 0 0 1008.1 1005.7 -
10/01:30am 25.2 27.2 16.1 57 5.6 CALM 0 0 0 0 1008.2 1005.8 -
10/01:00am 25.5 27.4 15.8 55 6.0 CALM 0 0 0 0 1008.4 1006.0 -
10/12:30am 25.2 27.1 15.8 56 5.8 CALM 0 0 0 0 1008.8 1006.4 -
10/12:00am 25.7 27.7 16.0 55 6.0 CALM 0 2 0 1 1009.1 1006.7 -
 
Date/Time
CST
Temp
°C
App
Temp
°C
Dew
Point
Rel
Hum
%
Delta-T
°C
Wind Press
QNH
hPa
Press
MSL
hPa
Rain
since 9 am
mm
Dir
 
Spd
km/h
Gust
km/h
Spd
kts
Gust
kts
09/11:30pm 26.0 27.0 16.3 55 6.0 S 6 7 3 4 1009.2 1006.8 -
09/11:00pm 26.4 27.7 14.2 47 7.4 CALM 0 6 0 3 1009.1 1006.7 -
09/10:30pm 26.6 27.3 14.4 47 7.4 S 4 6 2 3 1008.9 1006.5 -
09/10:00pm 27.2 27.5 14.6 46 7.7 SSE 6 7 3 4 1008.7 1006.3 -

Other Formats:

Comma delimited format used in spreadsheet applications
http://www.bom.gov.au/fwo/IDD60801/IDD60801.94231.axf

JavaScript Object Notation format (JSON) in row-major order
http://www.bom.gov.au/fwo/IDD60801/IDD60801.94231.json